createdAt,value
2022-08-05T00:01:56.898Z,20.94
2022-08-05T00:04:38.116Z,20.92
2022-08-05T00:07:26.789Z,20.84
2022-08-05T00:09:59.952Z,20.84
2022-08-05T00:12:29.673Z,20.83
2022-08-05T00:15:58.258Z,20.76
2022-08-05T00:17:51.678Z,20.72
2022-08-05T00:20:22.049Z,20.74
2022-08-05T00:23:02.557Z,20.75
2022-08-05T00:25:46.099Z,20.76
2022-08-05T00:28:16.103Z,20.78
2022-08-05T00:31:04.255Z,20.77
2022-08-05T00:34:55.858Z,20.75
2022-08-05T00:37:13.074Z,20.71
2022-08-05T00:39:14.805Z,20.72
2022-08-05T00:41:55.211Z,20.69
2022-08-05T00:44:30.826Z,20.69
2022-08-05T00:47:05.890Z,20.69
2022-08-05T00:49:44.665Z,20.71
2022-08-05T00:52:28.342Z,20.71
2022-08-05T00:54:59.059Z,20.70
2022-08-05T00:57:31.807Z,20.65
2022-08-05T01:00:10.996Z,20.61
2022-08-05T01:02:43.613Z,20.55
2022-08-05T01:05:13.812Z,20.52
2022-08-05T01:08:39.878Z,20.49
2022-08-05T01:10:39.751Z,20.43
2022-08-05T01:13:57.118Z,20.40
2022-08-05T01:16:26.458Z,20.43
2022-08-05T01:19:07.051Z,20.44
2022-08-05T01:21:54.110Z,20.47
2022-08-05T01:24:44.002Z,20.43
2022-08-05T01:27:28.437Z,20.43
2022-08-05T01:30:12.450Z,20.43
2022-08-05T01:32:51.506Z,20.47
2022-08-05T01:35:52.107Z,20.45
2022-08-05T01:38:24.767Z,20.44
2022-08-05T01:41:01.907Z,20.44
2022-08-05T01:43:32.532Z,20.48
2022-08-05T01:46:07.543Z,20.48
2022-08-05T01:48:49.591Z,20.46
2022-08-05T01:51:21.688Z,20.47
2022-08-05T01:53:58.535Z,20.48
2022-08-05T01:58:11.544Z,20.49
2022-08-05T01:59:26.451Z,20.51
2022-08-05T02:02:01.663Z,20.56
2022-08-05T02:04:36.907Z,20.59
2022-08-05T02:07:10.464Z,20.57
2022-08-05T02:09:51.598Z,20.55
2022-08-05T02:12:28.508Z,20.52
2022-08-05T02:15:12.302Z,20.52
2022-08-05T02:18:31.343Z,20.48
2022-08-05T02:20:48.928Z,20.48
2022-08-05T02:23:23.144Z,20.48
2022-08-05T02:25:55.137Z,20.46
2022-08-05T02:28:31.237Z,20.44
2022-08-05T02:31:14.352Z,20.44
2022-08-05T02:33:57.215Z,20.40
2022-08-05T02:36:31.451Z,20.37
2022-08-05T02:39:04.651Z,20.39
2022-08-05T02:41:43.424Z,20.35
2022-08-05T02:44:31.205Z,20.30
2022-08-05T02:47:02.047Z,20.25
2022-08-05T02:49:40.582Z,20.19
2022-08-05T02:52:25.911Z,20.15
2022-08-05T02:55:05.164Z,20.09
2022-08-05T02:58:09.763Z,20.10
2022-08-05T03:00:27.094Z,20.13
2022-08-05T03:02:59.340Z,20.11
2022-08-05T03:06:54.481Z,20.08
2022-08-05T03:08:27.020Z,20.09
2022-08-05T03:11:45.949Z,20.04
2022-08-05T03:13:52.223Z,20.04
2022-08-05T03:16:32.521Z,19.99
2022-08-05T03:19:16.855Z,20.02
2022-08-05T03:21:52.584Z,19.98
2022-08-05T03:24:26.856Z,19.97
2022-08-05T03:27:00.214Z,19.96
2022-08-05T03:29:45.894Z,19.94
2022-08-05T03:32:21.431Z,19.95
2022-08-05T03:35:01.368Z,19.91
2022-08-05T03:37:45.649Z,19.87
2022-08-05T03:40:24.219Z,19.82
2022-08-05T03:43:58.270Z,19.80
2022-08-05T03:45:57.347Z,19.77
2022-08-05T03:48:29.189Z,19.76
2022-08-05T03:51:06.954Z,19.74
2022-08-05T03:55:50.017Z,19.72
2022-08-05T03:56:52.671Z,19.68
2022-08-05T03:59:29.234Z,19.62
2022-08-05T04:02:39.153Z,19.54
2022-08-05T04:05:10.326Z,19.49
2022-08-05T04:07:58.778Z,19.48
2022-08-05T04:10:37.729Z,19.43
2022-08-05T04:13:09.298Z,19.44
2022-08-05T04:15:39.562Z,19.41
2022-08-05T04:18:29.759Z,19.44
2022-08-05T04:21:00.839Z,19.43
2022-08-05T04:24:05.416Z,19.41
2022-08-05T04:26:24.727Z,19.38
2022-08-05T04:28:54.686Z,19.38
2022-08-05T04:31:27.575Z,19.39
2022-08-05T04:34:18.751Z,19.32
2022-08-05T04:36:58.096Z,19.30
2022-08-05T04:39:27.924Z,19.32
2022-08-05T04:42:00.416Z,19.35
2022-08-05T04:44:31.652Z,19.36
2022-08-05T04:47:09.817Z,19.36
2022-08-05T04:50:01.474Z,19.35
2022-08-05T04:52:33.391Z,19.36
2022-08-05T04:55:14.008Z,19.38
2022-08-05T04:57:51.638Z,19.40
2022-08-05T05:00:24.312Z,19.38
2022-08-05T05:02:54.289Z,19.36
2022-08-05T05:05:28.585Z,19.36
2022-08-05T05:08:02.846Z,19.34
2022-08-05T05:10:34.020Z,19.39
2022-08-05T05:13:06.376Z,19.40
2022-08-05T05:15:57.560Z,19.40
2022-08-05T05:18:28.737Z,19.40
2022-08-05T05:21:04.367Z,19.41
2022-08-05T05:23:39.088Z,19.39
2022-08-05T05:26:28.644Z,19.41
2022-08-05T05:29:14.493Z,19.39
2022-08-05T05:31:46.208Z,19.41
2022-08-05T05:34:21.181Z,19.44
2022-08-05T05:36:56.391Z,19.40
2022-08-05T05:39:26.847Z,19.39
2022-08-05T05:42:04.338Z,19.39
2022-08-05T05:44:37.721Z,19.37
2022-08-05T05:47:21.714Z,19.45
2022-08-05T05:49:56.943Z,19.49
2022-08-05T05:52:34.655Z,19.60
2022-08-05T05:55:13.716Z,19.96
2022-08-05T05:57:53.009Z,20.21
2022-08-05T06:00:31.308Z,20.55
2022-08-05T06:03:01.359Z,20.98
2022-08-05T06:05:31.947Z,21.44
2022-08-05T06:08:03.811Z,21.87
2022-08-05T06:10:36.340Z,22.15
2022-08-05T06:13:09.575Z,22.40
2022-08-05T06:16:29.331Z,22.65
2022-08-05T06:18:32.318Z,22.84
2022-08-05T06:21:07.946Z,23.07
2022-08-05T06:23:46.840Z,23.35
2022-08-05T06:26:23.904Z,23.56
2022-08-05T06:28:54.745Z,23.82
2022-08-05T06:31:32.026Z,24.08
2022-08-05T06:34:03.022Z,24.29
2022-08-05T06:36:58.160Z,24.48
2022-08-05T06:39:28.039Z,24.65
2022-08-05T06:41:59.276Z,24.79
2022-08-05T06:44:30.237Z,24.82
2022-08-05T06:47:03.005Z,24.68
2022-08-05T06:50:00.093Z,24.49
2022-08-05T06:52:36.693Z,24.22
2022-08-05T06:55:08.723Z,24.02
2022-08-05T06:57:57.677Z,23.84
2022-08-05T07:00:29.640Z,23.63
2022-08-05T07:03:02.312Z,23.54
2022-08-05T07:05:37.689Z,23.42
2022-08-05T07:08:11.277Z,23.32
2022-08-05T07:10:53.351Z,23.26
2022-08-05T07:13:56.669Z,23.42
2022-08-05T07:17:56.763Z,23.73
2022-08-05T07:20:10.927Z,24.09
2022-08-05T07:22:29.011Z,24.49
2022-08-05T07:25:23.802Z,24.70
2022-08-05T07:27:58.445Z,24.88
2022-08-05T07:30:34.181Z,25.02
2022-08-05T07:33:09.030Z,25.12
2022-08-05T07:36:04.909Z,25.37
2022-08-05T07:38:34.938Z,25.37
2022-08-05T07:42:08.805Z,25.10
2022-08-05T07:43:57.776Z,24.77
2022-08-05T07:46:28.752Z,24.67
2022-08-05T07:49:03.125Z,24.78
2022-08-05T07:51:53.976Z,24.89
2022-08-05T07:54:31.668Z,24.83
2022-08-05T07:57:22.438Z,24.88
2022-08-05T07:59:54.097Z,24.98
2022-08-05T08:02:31.220Z,24.97
2022-08-05T08:05:18.842Z,24.75
2022-08-05T08:08:00.295Z,24.63
2022-08-05T08:10:30.810Z,24.49
2022-08-05T08:13:01.837Z,24.58
2022-08-05T08:16:35.791Z,24.75
2022-08-05T08:18:21.732Z,24.53
2022-08-05T08:21:02.729Z,24.51
2022-08-05T08:24:02.806Z,24.61
2022-08-05T08:26:29.418Z,24.36
2022-08-05T08:29:21.756Z,24.04
2022-08-05T08:31:50.668Z,23.78
2022-08-05T08:34:30.775Z,23.84
2022-08-05T08:37:05.267Z,23.78
2022-08-05T08:39:38.414Z,23.77
2022-08-05T08:42:46.930Z,23.91
2022-08-05T08:45:21.320Z,23.77
2022-08-05T08:48:07.517Z,23.75
2022-08-05T08:51:07.763Z,23.69
2022-08-05T08:53:45.217Z,23.65
2022-08-05T08:56:18.187Z,23.86
2022-08-05T08:58:48.648Z,23.94
2022-08-05T09:01:19.383Z,23.85
2022-08-05T09:03:54.362Z,23.78
2022-08-05T09:06:29.919Z,23.81
2022-08-05T09:09:01.728Z,23.94
2022-08-05T09:11:52.076Z,24.01
2022-08-05T09:14:57.955Z,23.80
2022-08-05T09:17:43.173Z,23.75
2022-08-05T09:20:08.413Z,23.92
2022-08-05T09:23:18.451Z,23.87
2022-08-05T09:26:01.307Z,23.89
2022-08-05T09:28:37.672Z,23.90
2022-08-05T09:31:22.440Z,23.83
2022-08-05T09:34:01.607Z,23.90
2022-08-05T09:36:45.923Z,23.87
2022-08-05T09:39:27.695Z,23.83
2022-08-05T09:42:17.377Z,23.84
2022-08-05T09:45:03.230Z,23.80
2022-08-05T09:47:56.473Z,23.63
2022-08-05T09:50:44.711Z,23.62
2022-08-05T09:53:25.895Z,23.71
2022-08-05T09:56:13.369Z,23.73
2022-08-05T09:58:43.692Z,23.94
2022-08-05T10:01:31.623Z,24.01
2022-08-05T10:04:10.662Z,24.10
2022-08-05T10:06:41.217Z,24.09
2022-08-05T10:09:27.329Z,24.03
2022-08-05T10:12:18.721Z,23.93
2022-08-05T10:15:17.305Z,23.98
2022-08-05T10:18:10.146Z,24.09
2022-08-05T10:20:42.816Z,24.11
2022-08-05T10:23:34.730Z,24.04
2022-08-05T10:26:08.219Z,24.03
2022-08-05T10:28:46.385Z,24.06
2022-08-05T10:32:50.604Z,24.04
2022-08-05T10:34:11.742Z,24.10
2022-08-05T10:36:43.979Z,24.02
2022-08-05T10:39:24.522Z,24.12
2022-08-05T10:42:15.755Z,24.05
2022-08-05T10:44:49.451Z,23.95
2022-08-05T10:47:26.973Z,23.91
2022-08-05T10:50:20.606Z,23.88
2022-08-05T10:53:02.726Z,23.85
2022-08-05T10:56:03.242Z,23.82
2022-08-05T10:58:23.671Z,23.88
2022-08-05T11:01:13.487Z,23.90
2022-08-05T11:04:03.380Z,23.87
2022-08-05T11:07:00.622Z,23.68
2022-08-05T11:09:46.559Z,23.65
2022-08-05T11:12:50.506Z,23.45
2022-08-05T11:15:59.546Z,23.30
2022-08-05T11:18:34.499Z,23.18
2022-08-05T11:21:11.737Z,23.06
2022-08-05T11:24:05.192Z,23.07
2022-08-05T11:26:49.472Z,23.02
2022-08-05T11:29:40.384Z,22.96
2022-08-05T11:32:29.231Z,22.75
2022-08-05T11:35:00.464Z,22.81
2022-08-05T11:38:26.248Z,22.85
2022-08-05T11:41:34.481Z,23.04
2022-08-05T11:44:07.080Z,23.08
2022-08-05T11:47:09.436Z,22.77
2022-08-05T11:49:33.870Z,22.68
2022-08-05T11:52:11.451Z,22.68
2022-08-05T11:54:43.546Z,22.67
2022-08-05T11:57:24.471Z,22.69
2022-08-05T11:59:55.912Z,22.72
2022-08-05T12:02:33.006Z,22.71
2022-08-05T12:05:08.144Z,22.74
2022-08-05T12:08:09.013Z,22.68
2022-08-05T12:10:44.961Z,22.61
2022-08-05T12:13:47.602Z,22.65
2022-08-05T12:16:14.599Z,22.77
2022-08-05T12:18:49.579Z,22.78
2022-08-05T12:21:26.800Z,22.81
2022-08-05T12:24:05.034Z,22.84
2022-08-05T12:26:36.892Z,22.69
2022-08-05T12:29:11.882Z,22.61
2022-08-05T12:31:53.619Z,22.54
2022-08-05T12:34:28.405Z,22.47
2022-08-05T12:36:59.928Z,22.42
2022-08-05T12:39:37.308Z,22.35
2022-08-05T12:42:14.767Z,22.10
2022-08-05T12:44:48.528Z,22.06
2022-08-05T12:47:31.057Z,22.19
2022-08-05T12:50:06.251Z,22.07
2022-08-05T12:52:42.198Z,22.06
2022-08-05T12:55:25.493Z,22.10
2022-08-05T12:58:48.882Z,22.04
2022-08-05T13:02:01.593Z,21.88
2022-08-05T13:03:43.228Z,21.80
2022-08-05T13:06:19.772Z,21.78
2022-08-05T13:08:52.401Z,21.75
2022-08-05T13:11:59.740Z,21.87
2022-08-05T13:14:19.533Z,21.91
2022-08-05T13:16:56.554Z,21.87
2022-08-05T13:19:51.680Z,21.90
2022-08-05T13:22:29.120Z,22.02
2022-08-05T13:25:05.415Z,22.10
2022-08-05T13:27:39.270Z,22.20
2022-08-05T13:30:32.978Z,22.28
2022-08-05T13:33:04.183Z,22.16
2022-08-05T13:35:47.579Z,22.09
2022-08-05T13:38:30.529Z,21.80
2022-08-05T13:41:01.504Z,21.36
2022-08-05T13:43:44.956Z,21.15
2022-08-05T13:46:37.800Z,21.11
2022-08-05T13:49:15.461Z,20.84
2022-08-05T13:51:46.393Z,20.63
2022-08-05T13:54:17.223Z,20.58
2022-08-05T13:56:55.310Z,20.66
2022-08-05T13:59:27.177Z,20.72
2022-08-05T14:02:00.298Z,20.81
2022-08-05T14:04:50.225Z,21.02
2022-08-05T14:07:26.538Z,21.11
2022-08-05T14:10:19.097Z,21.05
2022-08-05T14:12:59.512Z,21.00
2022-08-05T14:16:05.294Z,21.02
2022-08-05T14:18:23.458Z,21.02
2022-08-05T14:20:56.418Z,21.26
2022-08-05T14:23:28.813Z,21.45
2022-08-05T14:26:06.605Z,21.58
2022-08-05T14:28:36.393Z,21.61
2022-08-05T14:32:02.804Z,21.50
2022-08-05T14:34:12.462Z,21.43
2022-08-05T14:36:44.745Z,21.42
2022-08-05T14:39:23.595Z,21.46
2022-08-05T14:42:19.279Z,21.49
2022-08-05T14:44:43.381Z,21.43
2022-08-05T14:47:13.082Z,21.42
2022-08-05T14:49:59.410Z,21.57
2022-08-05T14:52:51.693Z,21.54
2022-08-05T14:55:22.599Z,21.58
2022-08-05T14:57:54.323Z,21.70
2022-08-05T15:00:29.387Z,21.66
2022-08-05T15:02:59.542Z,21.60
2022-08-05T15:05:29.793Z,21.78
2022-08-05T15:08:57.972Z,21.73
2022-08-05T15:11:11.574Z,21.61
2022-08-05T15:13:46.599Z,21.66
2022-08-05T15:16:20.120Z,21.57
2022-08-05T15:18:52.028Z,21.58
2022-08-05T15:21:22.366Z,21.56
2022-08-05T15:23:56.681Z,21.51
2022-08-05T15:26:31.706Z,21.57
2022-08-05T15:29:02.652Z,21.46
2022-08-05T15:31:34.918Z,21.38
2022-08-05T15:34:31.429Z,21.35
2022-08-05T15:36:54.660Z,21.29
2022-08-05T15:41:01.900Z,21.31
2022-08-05T15:42:50.369Z,21.30
2022-08-05T15:45:07.373Z,21.45
2022-08-05T15:47:39.670Z,21.37
2022-08-05T15:50:15.492Z,21.34
2022-08-05T15:52:52.761Z,21.35
2022-08-05T15:56:01.380Z,21.42
2022-08-05T15:58:17.528Z,21.37
2022-08-05T16:00:50.955Z,21.44
2022-08-05T16:03:34.396Z,21.47
2022-08-05T16:06:04.742Z,21.43
2022-08-05T16:08:34.683Z,21.44
2022-08-05T16:11:07.952Z,21.38
2022-08-05T16:13:38.022Z,21.36
2022-08-05T16:16:10.717Z,21.38
2022-08-05T16:18:52.314Z,21.35
2022-08-05T16:21:58.844Z,21.35
2022-08-05T16:24:39.507Z,21.39
2022-08-05T16:27:07.337Z,21.41
2022-08-05T16:29:37.977Z,21.25
2022-08-05T16:32:09.949Z,21.26
2022-08-05T16:34:41.715Z,21.32
2022-08-05T16:38:02.383Z,21.31
2022-08-05T16:40:06.133Z,21.10
2022-08-05T16:42:39.467Z,21.14
2022-08-05T16:46:05.266Z,21.14
2022-08-05T16:48:02.977Z,21.00
2022-08-05T16:50:32.935Z,20.94
2022-08-05T16:53:12.283Z,20.94
2022-08-05T16:55:52.048Z,20.87
2022-08-05T16:58:24.364Z,20.84
2022-08-05T17:00:55.335Z,20.81
2022-08-05T17:03:25.186Z,20.72
2022-08-05T17:05:59.499Z,20.61
2022-08-05T17:08:36.458Z,20.60
2022-08-05T17:11:19.386Z,20.61
2022-08-05T17:13:51.731Z,20.52
2022-08-05T17:16:33.349Z,20.51
2022-08-05T17:19:07.828Z,20.43
2022-08-05T17:21:40.714Z,20.36
2022-08-05T17:24:28.255Z,20.24
2022-08-05T17:27:01.753Z,20.13
2022-08-05T17:29:41.084Z,20.08
2022-08-05T17:32:17.319Z,20.18
2022-08-05T17:34:48.470Z,20.16
2022-08-05T17:37:39.824Z,20.18
2022-08-05T17:40:12.794Z,20.13
2022-08-05T17:42:50.976Z,20.10
2022-08-05T17:45:38.292Z,20.06
2022-08-05T17:48:09.204Z,20.06
2022-08-05T17:50:40.953Z,20.09
2022-08-05T17:53:11.180Z,20.07
2022-08-05T17:55:41.574Z,20.04
2022-08-05T17:58:13.346Z,19.92
2022-08-05T18:00:50.746Z,19.97
2022-08-05T18:06:15.477Z,19.85
2022-08-05T18:08:52.685Z,19.85
2022-08-05T18:11:32.559Z,19.91
2022-08-05T18:14:06.671Z,19.93
2022-08-05T18:16:43.719Z,19.87
2022-08-05T18:19:22.639Z,19.86
2022-08-05T18:22:08.832Z,19.87
2022-08-05T18:24:40.935Z,19.86
2022-08-05T18:27:18.627Z,19.82
2022-08-05T18:29:54.201Z,19.79
2022-08-05T18:32:28.214Z,19.77
2022-08-05T18:34:59.758Z,19.76
2022-08-05T18:37:34.399Z,19.70
2022-08-05T18:40:34.477Z,19.66
2022-08-05T18:43:02.570Z,19.59
2022-08-05T18:45:41.732Z,19.56
2022-08-05T18:48:30.785Z,19.59
2022-08-05T18:52:06.505Z,19.55
2022-08-05T18:54:05.647Z,19.52
2022-08-05T18:56:35.451Z,19.51
2022-08-05T18:59:44.356Z,19.46
2022-08-05T19:01:57.278Z,19.43
2022-08-05T19:04:31.183Z,19.38
2022-08-05T19:07:02.691Z,19.37
2022-08-05T19:09:39.181Z,19.31
2022-08-05T19:12:11.529Z,19.30
2022-08-05T19:15:00.722Z,19.31
2022-08-05T19:17:59.476Z,19.27
2022-08-05T19:20:23.902Z,19.22
2022-08-05T19:22:53.623Z,19.16
2022-08-05T19:25:30.076Z,19.14
2022-08-05T19:28:00.485Z,19.14
2022-08-05T19:30:30.476Z,19.09
2022-08-05T19:33:00.242Z,19.05
2022-08-05T19:35:56.709Z,18.98
2022-08-05T19:38:26.821Z,18.88
2022-08-05T19:40:56.676Z,18.76
2022-08-05T19:44:04.134Z,18.72
2022-08-05T19:46:16.820Z,18.74
2022-08-05T19:49:01.207Z,18.70
2022-08-05T19:52:04.589Z,18.69
2022-08-05T19:54:31.153Z,18.69
2022-08-05T19:57:02.600Z,18.72
2022-08-05T19:59:54.764Z,18.71
2022-08-05T20:02:27.091Z,18.68
2022-08-05T20:04:58.407Z,18.68
2022-08-05T20:07:38.925Z,18.66
2022-08-05T20:10:22.371Z,18.65
2022-08-05T20:12:55.214Z,18.54
2022-08-05T20:15:51.723Z,18.49
2022-08-05T20:18:33.699Z,18.42
2022-08-05T20:21:06.496Z,18.36
2022-08-05T20:23:51.353Z,18.32
2022-08-05T20:26:25.294Z,18.27
2022-08-05T20:28:57.616Z,18.25
2022-08-05T20:31:42.738Z,18.21
2022-08-05T20:34:21.251Z,18.19
2022-08-05T20:36:52.909Z,18.18
2022-08-05T20:39:25.922Z,18.19
2022-08-05T20:42:05.633Z,18.13
2022-08-05T20:44:38.224Z,18.07
2022-08-05T20:47:09.583Z,18.01
2022-08-05T20:49:40.470Z,18.01
2022-08-05T20:52:12.216Z,17.97
2022-08-05T20:55:15.904Z,17.93
2022-08-05T20:57:43.301Z,17.91
2022-08-05T21:00:40.941Z,17.89
2022-08-05T21:03:08.370Z,17.86
2022-08-05T21:05:53.637Z,17.81
2022-08-05T21:08:26.505Z,17.77
2022-08-05T21:11:00.323Z,17.70
2022-08-05T21:13:47.896Z,17.70
2022-08-05T21:16:22.354Z,17.69
2022-08-05T21:19:00.444Z,17.71
2022-08-05T21:21:39.230Z,17.71
2022-08-05T21:24:15.386Z,17.71
2022-08-05T21:26:58.026Z,17.72
2022-08-05T21:29:31.913Z,17.74
2022-08-05T21:32:02.631Z,17.77
2022-08-05T21:34:33.070Z,17.79
2022-08-05T21:37:05.484Z,17.76
2022-08-05T21:39:40.323Z,17.79
2022-08-05T21:42:30.626Z,17.80
2022-08-05T21:45:03.693Z,17.79
2022-08-05T21:47:57.231Z,17.78
2022-08-05T21:50:23.557Z,17.80
2022-08-05T21:52:53.349Z,17.80
2022-08-05T21:56:01.441Z,17.78
2022-08-05T21:58:15.788Z,17.72
2022-08-05T22:00:51.245Z,17.70
2022-08-05T22:03:48.529Z,17.68
2022-08-05T22:06:11.242Z,17.68
2022-08-05T22:08:42.534Z,17.66
2022-08-05T22:11:15.440Z,17.61
2022-08-05T22:14:33.778Z,17.56
2022-08-05T22:16:51.704Z,17.54
2022-08-05T22:20:02.847Z,17.48
2022-08-05T22:22:14.513Z,17.48
2022-08-05T22:24:56.850Z,17.44
2022-08-05T22:28:08.177Z,17.36
2022-08-05T22:30:55.287Z,17.36
2022-08-05T22:33:58.003Z,17.32
2022-08-05T22:36:17.850Z,17.29
2022-08-05T22:38:49.360Z,17.27
2022-08-05T22:42:04.946Z,17.28
2022-08-05T22:44:11.999Z,17.28
2022-08-05T22:46:45.170Z,17.29
2022-08-05T22:49:56.265Z,17.21
2022-08-05T22:52:15.459Z,17.21
2022-08-05T22:54:55.590Z,17.23
2022-08-05T22:57:25.731Z,17.27
2022-08-05T22:59:56.238Z,17.22
2022-08-05T23:02:30.146Z,17.15
2022-08-05T23:05:01.465Z,17.10
2022-08-05T23:07:45.068Z,17.03
2022-08-05T23:10:19.732Z,17.01
2022-08-05T23:12:51.374Z,16.94
2022-08-05T23:15:29.241Z,16.95
2022-08-05T23:18:03.195Z,16.91
2022-08-05T23:20:37.374Z,16.88
2022-08-05T23:23:08.800Z,16.83
2022-08-05T23:25:52.145Z,16.81
2022-08-05T23:28:28.626Z,16.78
2022-08-05T23:31:02.350Z,16.81
2022-08-05T23:34:05.867Z,16.82
2022-08-05T23:36:40.178Z,16.80
2022-08-05T23:39:16.621Z,16.79
2022-08-05T23:41:53.943Z,16.77
2022-08-05T23:44:27.807Z,16.76
2022-08-05T23:47:02.305Z,16.73
2022-08-05T23:49:43.234Z,16.73
2022-08-05T23:52:28.363Z,16.67
2022-08-05T23:54:59.801Z,16.64
2022-08-05T23:57:30.208Z,16.65
